CDT,Max TemperatureF,Mean TemperatureF,Min TemperatureF,Max Dew PointF,MeanDew PointF,Min DewpointF,Max Humidity, Mean Humidity, Min Humidity, Max Sea Level PressureIn, Mean Sea Level PressureIn, Min Sea Level PressureIn, Max VisibilityMiles, Mean VisibilityMiles, Min VisibilityMiles, Max Wind SpeedMPH, Mean Wind SpeedMPH, Max Gust SpeedMPH,PrecipitationIn, CloudCover, Events, WindDirDegrees
2012-8-1,96,76,55,64,57,46,94,57,18,29.98,29.90,29.79,10,10,10,13,2,16,0.00,0,,200
2012-8-2,87,78,69,68,63,57,83,67,35,29.88,29.85,29.80,10,10,7,31,6,54,0.09,2,Rain,241
2012-8-3,89,78,66,70,65,63,94,74,40,29.96,29.92,29.88,10,9,4,9,3,,0.00,3,,61
2012-8-4,87,78,68,68,65,59,94,78,38,29.96,29.88,29.81,10,10,2,14,4,22,0.01,2,Rain,236
2012-8-5,80,68,57,63,49,37,94,55,21,30.15,30.04,29.89,10,10,10,15,7,23,0.00,0,,286
2012-8-6,86,70,53,54,47,39,88,50,19,30.16,30.07,29.96,10,10,10,13,3,20,0.00,0,,252
2012-8-7,91,76,60,61,52,43,82,51,18,30.01,29.95,29.91,10,10,5,14,3,17,0.00,1,,320
2012-8-8,80,70,59,61,57,52,94,72,39,30.06,30.03,30.00,10,10,5,10,3,,0.16,4,Rain,51
2012-8-9,68,64,59,61,59,55,94,88,73,30.03,30.00,29.97,10,8,2,10,4,,2.15,7,Rain,32
2012-8-10,77,66,55,59,49,41,94,59,28,30.05,30.02,29.98,10,10,10,15,8,23,0.01,1,,358
2012-8-11,78,66,53,55,48,45,88,56,30,30.04,30.01,29.97,10,10,10,13,6,21,0.00,0,,341
2012-8-12,75,64,53,57,54,50,94,71,41,30.01,29.99,29.96,10,10,10,7,1,,0.00,0,,221
2012-8-13,82,71,60,59,55,43,94,64,25,29.99,29.95,29.91,10,10,10,10,2,16,0.00,5,,282
2012-8-14,82,68,55,59,52,43,94,61,26,29.97,29.93,29.90,10,10,10,12,3,,0.00,2,,308
2012-8-15,84,70,55,59,56,52,94,63,35,29.94,29.89,29.80,10,10,10,12,2,,0.00,3,,147
2012-8-16,73,68,60,66,57,52,88,67,47,29.93,29.80,29.70,10,10,3,18,7,28,0.49,6,Rain,261
2012-8-17,75,64,51,52,45,34,88,59,22,30.02,29.99,29.93,10,10,10,12,6,17,0.00,0,,292
2012-8-18,77,62,46,52,45,39,94,58,26,30.03,29.99,29.93,10,10,10,12,2,21,0.00,2,,278
2012-8-19,77,65,53,57,53,48,94,72,36,29.99,29.96,29.92,10,10,3,16,1,25,0.23,4,Rain,43
2012-8-20,77,64,50,52,46,37,94,61,24,30.02,29.99,29.96,10,10,7,8,1,,0.00,2,,319
2012-8-21,80,65,50,55,48,43,94,59,26,30.08,30.05,30.01,10,10,10,12,2,18,0.00,1,,265
2012-8-22,86,68,50,59,50,45,94,60,23,30.10,30.04,29.99,10,10,10,10,2,16,0.03,0,,192
2012-8-23,86,73,60,64,60,55,88,65,40,30.03,30.00,29.94,10,10,10,10,2,,0.00,1,Rain,148
2012-8-24,91,78,64,63,58,52,88,55,27,30.00,29.95,29.92,10,10,10,14,5,22,0.00,2,Rain,192
2012-8-25,91,75,59,63,58,48,94,61,23,30.02,29.99,29.97,10,9,2,15,2,24,0.00,0,,167
2012-8-26,78,73,68,68,66,61,94,83,65,30.03,30.00,29.96,10,7,1,9,3,,0.08,5,Rain,167
2012-8-27,84,72,60,64,58,50,94,65,30,30.12,30.06,30.01,10,9,0,10,3,,0.03,1,Fog,314
2012-8-28,82,68,55,61,57,54,94,71,37,30.18,30.12,30.06,10,10,10,6,1,,0.00,0,,53
2012-8-29,87,74,60,64,61,59,94,68,40,30.10,30.03,29.95,10,9,5,10,3,,0.01,2,,156
2012-8-30,93,78,64,63,61,55,88,56,29,29.96,29.89,29.81,10,10,10,21,8,30,0.00,0,,199
2012-8-31,86,75,62,63,57,46,88,55,27,30.14,30.02,29.89,10,10,10,9,5,,0.00,0,,17